Time;durP1;ratioP1;P1;durP2;ratioP2;P2;SDS_P1;SDS_P2;PMS_P1;PMS_P2;Temp;Humidity;BMP_temperature;BMP_pressure;BME280_temperature;BME280_humidity;BME280_pressure;Samples;Min_cycle;Max_cycle;Signal;HPM_P1;HPM_P2
2022/12/09 00:01:57;;;;;;;6.13;3.72;;;2.20;99.90;;;;;;5036358;28;20038;-69
2022/12/09 00:04:23;;;;;;;5.10;3.22;;;2.20;99.90;;;;;;5035251;28;20079;-69
2022/12/09 00:06:48;;;;;;;5.88;3.42;;;2.20;99.90;;;;;;5036110;28;20045;-69
2022/12/09 00:09:14;;;;;;;5.75;3.17;;;2.20;99.90;;;;;;5034250;28;20614;-69
2022/12/09 00:11:41;;;;;;;6.57;3.35;;;2.20;99.90;;;;;;5036581;28;20041;-69
2022/12/09 00:14:09;;;;;;;6.22;3.97;;;2.20;99.90;;;;;;5058721;28;20050;-69
2022/12/09 00:16:34;;;;;;;7.45;4.25;;;2.20;99.90;;;;;;5119392;28;20055;-69
2022/12/09 00:19:00;;;;;;;6.13;3.53;;;2.20;99.90;;;;;;5120095;28;20158;-69
2022/12/09 00:21:31;;;;;;;6.63;4.07;;;2.20;99.90;;;;;;5117372;28;20518;-68
2022/12/09 00:24:02;;;;;;;5.35;3.90;;;2.20;99.90;;;;;;5119083;28;20047;-69
2022/12/09 00:26:28;;;;;;;7.22;3.90;;;2.20;99.90;;;;;;5119505;28;20059;-69
2022/12/09 00:28:55;;;;;;;6.72;4.00;;;2.20;99.90;;;;;;5118854;28;20094;-69
2022/12/09 00:31:23;;;;;;;5.60;4.07;;;2.30;99.90;;;;;;5119319;28;20062;-68
2022/12/09 00:33:55;;;;;;;5.78;3.55;;;2.20;99.90;;;;;;5117340;28;20063;-69
2022/12/09 00:36:22;;;;;;;5.75;3.50;;;2.20;99.90;;;;;;5072890;27;20072;-69
2022/12/09 00:38:48;;;;;;;5.28;3.58;;;2.50;99.90;;;;;;5015607;28;20050;-69
2022/12/09 00:41:15;;;;;;;5.57;3.63;;;2.30;99.90;;;;;;5015170;28;20489;-68
2022/12/09 00:43:42;;;;;;;7.78;3.95;;;2.30;99.90;;;;;;5014145;28;20046;-69
2022/12/09 00:46:09;;;;;;;5.97;3.97;;;2.30;99.90;;;;;;5014401;28;20048;-69
2022/12/09 00:48:37;;;;;;;5.60;3.63;;;2.40;99.90;;;;;;5016807;28;20062;-68
2022/12/09 00:51:04;;;;;;;10.05;4.65;;;2.30;99.90;;;;;;5014239;28;20049;-69
2022/12/09 00:53:30;;;;;;;6.10;3.40;;;2.30;99.90;;;;;;5016044;28;20058;-68
2022/12/09 00:55:55;;;;;;;5.55;3.83;;;2.30;99.90;;;;;;5012711;28;20081;-69
2022/12/09 00:58:21;;;;;;;6.85;4.30;;;2.30;99.90;;;;;;4999240;28;20090;-68
2022/12/09 01:00:47;;;;;;;5.95;3.70;;;2.30;99.90;;;;;;5013669;28;20046;-68
2022/12/09 01:03:14;;;;;;;5.40;3.97;;;2.30;99.90;;;;;;5015707;28;20076;-69
2022/12/09 01:05:40;;;;;;;6.68;3.50;;;2.30;99.90;;;;;;5016440;28;20046;-68
2022/12/09 01:08:06;;;;;;;6.75;4.03;;;2.40;99.90;;;;;;5013105;28;20102;-69
2022/12/09 01:10:33;;;;;;;7.70;4.53;;;2.40;99.90;;;;;;5016459;28;20074;-69
2022/12/09 01:12:59;;;;;;;7.35;4.38;;;2.40;99.90;;;;;;5014351;28;20053;-69
2022/12/09 01:15:25;;;;;;;7.97;4.32;;;2.40;99.90;;;;;;5015008;28;20046;-69
2022/12/09 01:17:51;;;;;;;6.30;3.90;;;2.50;99.90;;;;;;5013488;28;20050;-68
2022/12/09 01:20:16;;;;;;;5.55;4.20;;;2.40;99.90;;;;;;5014165;28;20045;-69
2022/12/09 01:22:42;;;;;;;7.43;4.32;;;2.40;99.90;;;;;;4998482;28;20520;-69
2022/12/09 01:25:08;;;;;;;7.60;4.15;;;2.50;99.90;;;;;;5012394;28;20156;-68
2022/12/09 01:27:34;;;;;;;6.32;4.18;;;2.50;99.90;;;;;;4999131;28;20596;-68
2022/12/09 01:29:59;;;;;;;9.30;4.70;;;2.50;99.90;;;;;;5013890;28;20580;-68
2022/12/09 01:32:25;;;;;;;6.68;4.35;;;2.80;99.90;;;;;;4998466;28;20038;-69
2022/12/09 01:34:51;;;;;;;7.65;4.55;;;2.50;99.90;;;;;;4996340;28;20077;-69
2022/12/09 01:37:16;;;;;;;8.27;4.70;;;2.50;99.90;;;;;;5034368;28;20053;-69
2022/12/09 01:39:42;;;;;;;8.95;4.53;;;2.50;99.90;;;;;;5034079;28;20160;-69
2022/12/09 01:42:22;;;;;;;7.93;4.50;;;2.50;99.90;;;;;;5032554;28;20056;-68
2022/12/09 01:45:30;;;;;;;6.88;4.07;;;2.60;99.90;;;;;;5034620;28;20083;-68
2022/12/09 01:48:14;;;;;;;8.20;5.13;;;2.50;99.90;;;;;;5040091;28;20053;-69
2022/12/09 01:50:50;;;;;;;6.85;4.63;;;2.50;99.90;;;;;;5032977;28;20054;-69
2022/12/09 01:53:19;;;;;;;8.05;4.55;;;2.40;99.90;;;;;;5034165;28;20054;-68
2022/12/09 01:55:45;;;;;;;7.07;4.70;;;2.40;99.90;;;;;;5031505;28;20493;-69
2022/12/09 01:58:11;;;;;;;6.93;4.10;;;2.20;99.90;;;;;;5035395;28;20079;-68
2022/12/09 02:00:37;;;;;;;8.68;4.97;;;2.20;99.90;;;;;;5032184;28;20091;-69
2022/12/09 02:03:04;;;;;;;8.23;4.97;;;2.20;99.90;;;;;;5033199;28;20053;-69
2022/12/09 02:05:30;;;;;;;7.95;4.93;;;2.20;99.90;;;;;;5033773;28;20045;-68
2022/12/09 02:07:56;;;;;;;7.65;4.43;;;2.10;99.90;;;;;;5033705;28;20548;-69
2022/12/09 02:10:22;;;;;;;9.98;5.40;;;2.10;99.90;;;;;;5034250;28;20077;-68
2022/12/09 02:13:23;;;;;;;7.65;5.10;;;2.20;99.90;;;;;;5031749;28;20098;-69
2022/12/09 02:16:04;;;;;;;9.95;5.22;;;2.20;99.90;;;;;;5014502;28;20054;-69
2022/12/09 02:18:50;;;;;;;5.97;4.20;;;2.10;99.90;;;;;;5014076;28;20057;-68
2022/12/09 02:21:27;;;;;;;9.25;5.25;;;2.10;99.90;;;;;;5012350;28;20071;-69
2022/12/09 02:24:02;;;;;;;8.00;4.93;;;2.00;99.90;;;;;;5014586;28;20057;-68
2022/12/09 02:26:44;;;;;;;7.82;5.53;;;2.00;99.90;;;;;;5115440;28;20051;-69
2022/12/09 02:29:51;;;;;;;8.77;5.60;;;2.00;99.90;;;;;;5115628;28;20519;-69
2022/12/09 02:32:46;;;;;;;10.53;5.23;;;2.10;99.90;;;;;;5055127;28;20049;-69
2022/12/09 02:35:33;;;;;;;9.05;5.30;;;2.10;99.90;;;;;;5117376;28;20043;-69
2022/12/09 02:38:18;;;;;;;9.20;5.55;;;2.10;99.90;;;;;;5116645;28;20039;-69
2022/12/09 02:41:06;;;;;;;8.57;5.57;;;2.10;99.90;;;;;;5118680;28;20087;-68
2022/12/09 02:43:40;;;;;;;8.85;5.00;;;2.10;99.90;;;;;;5117014;28;20044;-68
2022/12/09 02:46:08;;;;;;;10.38;5.68;;;2.20;99.90;;;;;;5117503;28;20031;-68
2022/12/09 02:48:42;;;;;;;9.20;5.50;;;2.20;99.90;;;;;;5116895;28;20057;-69
2022/12/09 02:51:15;;;;;;;10.98;6.47;;;2.20;99.90;;;;;;5114815;28;20043;-68
2022/12/09 02:53:43;;;;;;;8.10;5.63;;;2.10;99.90;;;;;;5118731;28;20075;-69
2022/12/09 02:56:10;;;;;;;8.70;5.13;;;2.00;99.90;;;;;;5097918;28;20052;-69
2022/12/09 02:58:35;;;;;;;9.40;6.00;;;2.00;99.90;;;;;;5099132;28;20060;-69
2022/12/09 03:01:01;;;;;;;9.95;6.00;;;2.10;99.90;;;;;;5074336;28;20118;-69
2022/12/09 03:03:30;;;;;;;9.57;5.82;;;2.00;99.90;;;;;;5075705;28;20439;-69
2022/12/09 03:06:06;;;;;;;10.95;6.70;;;2.10;99.90;;;;;;5016229;28;20345;-69
2022/12/09 03:08:45;;;;;;;9.02;5.68;;;2.10;99.90;;;;;;5030269;28;20053;-69
2022/12/09 03:11:15;;;;;;;9.52;5.30;;;2.10;99.90;;;;;;5036342;28;20060;-69
2022/12/09 03:14:04;;;;;;;8.18;5.47;;;2.10;99.90;;;;;;5042470;28;20049;-69
2022/12/09 03:16:37;;;;;;;10.02;6.05;;;2.20;99.90;;;;;;5069100;28;20045;-69
2022/12/09 03:19:18;;;;;;;8.48;4.72;;;2.20;99.90;;;;;;5018775;28;20084;-69
2022/12/09 03:21:47;;;;;;;11.73;5.70;;;2.20;99.90;;;;;;5016344;28;20050;-69
2022/12/09 03:24:17;;;;;;;8.35;5.10;;;2.20;99.90;;;;;;5015979;28;20078;-70
2022/12/09 03:26:43;;;;;;;8.10;5.28;;;2.10;99.90;;;;;;5015783;28;20073;-70
2022/12/09 03:29:20;;;;;;;10.43;6.28;;;2.10;99.90;;;;;;4998988;28;20057;-70
2022/12/09 03:31:45;;;;;;;;;;;2.10;99.90;;;;;;5019450;28;20409;-70
2022/12/09 03:34:15;;;;;;;7.00;4.53;;;2.00;99.90;;;;;;5030642;28;19925;-69
2022/12/09 03:36:45;;;;;;;7.43;4.72;;;1.90;99.90;;;;;;5036354;28;20182;-70
2022/12/09 03:39:17;;;;;;;6.38;4.45;;;1.90;99.90;;;;;;5035103;28;20048;-70
2022/12/09 03:41:48;;;;;;;8.10;4.65;;;1.90;99.90;;;;;;5037142;28;20523;-70
2022/12/09 03:44:26;;;;;;;8.65;5.00;;;1.10;99.90;;;;;;5037716;28;20049;-68
2022/12/09 03:46:51;;;;;;;8.63;4.95;;;1.80;99.90;;;;;;5063354;28;21188;-69
2022/12/09 03:49:17;;;;;;;8.65;5.20;;;1.80;99.90;;;;;;5093452;28;20050;-69
2022/12/09 03:52:02;;;;;;;7.97;4.75;;;1.90;99.90;;;;;;5014971;28;20050;-68
2022/12/09 03:54:45;;;;;;;7.50;4.55;;;1.90;99.90;;;;;;5029409;28;20056;-69
2022/12/09 03:57:14;;;;;;;8.18;4.80;;;1.80;99.90;;;;;;5037606;28;20109;-69
2022/12/09 03:59:43;;;;;;;8.70;5.18;;;1.70;99.90;;;;;;5035208;28;20042;-69
2022/12/09 04:02:09;;;;;;;8.05;4.97;;;1.60;99.90;;;;;;5030440;28;20101;-69
2022/12/09 04:04:39;;;;;;;9.05;5.50;;;1.60;99.90;;;;;;5015597;28;20090;-69
2022/12/09 04:07:06;;;;;;;8.95;5.00;;;1.60;99.90;;;;;;5017122;28;20139;-69
2022/12/09 04:09:32;;;;;;;8.00;4.85;;;1.60;99.90;;;;;;5015114;28;20469;-69
2022/12/09 04:11:57;;;;;;;8.00;4.60;;;1.80;99.90;;;;;;5077769;28;20039;-69
2022/12/09 04:14:23;;;;;;;8.10;5.20;;;1.60;99.90;;;;;;5116357;28;20024;-69
2022/12/09 04:16:49;;;;;;;9.73;5.40;;;1.60;99.90;;;;;;5116891;28;20051;-69
2022/12/09 04:19:15;;;;;;;7.72;4.75;;;1.60;99.90;;;;;;5052088;28;20073;-69
2022/12/09 04:21:40;;;;;;;8.20;5.28;;;1.60;99.90;;;;;;5015344;28;20529;-69
2022/12/09 04:24:06;;;;;;;8.07;4.97;;;1.60;99.90;;;;;;5016700;28;20076;-69
2022/12/09 04:26:33;;;;;;;8.80;5.20;;;1.60;99.90;;;;;;5027660;28;20085;-69
2022/12/09 04:28:59;;;;;;;8.68;5.00;;;1.50;99.90;;;;;;5051702;28;20449;-69
2022/12/09 04:31:24;;;;;;;8.25;5.15;;;1.40;99.90;;;;;;4997488;28;20054;-69
2022/12/09 04:33:50;;;;;;;9.25;5.45;;;1.40;99.90;;;;;;5015521;28;20074;-69
2022/12/09 04:36:18;;;;;;;9.95;5.60;;;1.30;99.90;;;;;;5120788;28;20117;-69
2022/12/09 04:38:44;;;;;;;11.23;5.88;;;1.30;99.90;;;;;;5118721;28;20058;-69
2022/12/09 04:41:11;;;;;;;8.95;6.07;;;1.40;99.90;;;;;;5085042;28;20044;-69
2022/12/09 04:43:37;;;;;;;9.60;5.30;;;1.40;99.90;;;;;;5036418;28;20064;-69
2022/12/09 04:46:06;;;;;;;8.57;5.60;;;1.50;99.90;;;;;;5108821;28;20047;-69
2022/12/09 04:48:32;;;;;;;9.65;5.60;;;1.50;99.90;;;;;;5101191;28;20080;-69
2022/12/09 04:50:58;;;;;;;9.70;6.88;;;1.50;99.90;;;;;;5013034;28;20050;-69
2022/12/09 04:53:24;;;;;;;9.10;5.63;;;1.40;99.90;;;;;;5014867;28;20132;-69
2022/12/09 04:56:09;;;;;;;11.20;5.95;;;1.40;99.90;;;;;;4995936;28;20803;-69
2022/12/09 04:58:35;;;;;;;9.75;6.45;;;1.40;99.90;;;;;;5096769;28;20079;-69
2022/12/09 05:01:08;;;;;;;9.77;5.80;;;1.40;99.90;;;;;;5117544;28;20048;-69
2022/12/09 05:03:35;;;;;;;9.95;5.85;;;1.40;99.90;;;;;;5118445;28;20119;-69
2022/12/09 05:06:05;;;;;;;10.32;6.15;;;1.40;99.90;;;;;;5119110;28;20052;-69
2022/12/09 05:08:31;;;;;;;10.32;5.28;;;1.50;99.90;;;;;;5117756;28;20052;-69
2022/12/09 05:10:57;;;;;;;7.82;5.10;;;1.40;99.90;;;;;;5120006;28;20042;-69
2022/12/09 05:13:25;;;;;;;9.15;5.40;;;1.50;99.90;;;;;;5117824;28;20043;-69
2022/12/09 05:15:53;;;;;;;11.48;6.05;;;1.40;99.90;;;;;;5111346;28;20077;-69
2022/12/09 05:18:19;;;;;;;13.38;6.80;;;1.40;99.90;;;;;;5119521;27;20039;-69
2022/12/09 05:20:44;;;;;;;10.70;6.40;;;1.40;99.90;;;;;;5116677;28;20086;-69
2022/12/09 05:23:10;;;;;;;13.43;6.70;;;1.40;99.90;;;;;;5120156;28;20039;-69
2022/12/09 05:25:36;;;;;;;12.88;6.15;;;1.40;99.90;;;;;;5116527;28;20052;-69
2022/12/09 05:28:02;;;;;;;10.02;6.07;;;1.40;99.90;;;;;;5118941;28;20048;-69
2022/12/09 05:30:28;;;;;;;12.52;6.28;;;1.30;99.90;;;;;;5117620;28;20097;-69
2022/12/09 05:32:53;;;;;;;9.65;5.85;;;1.20;99.90;;;;;;5117478;28;20441;-69
2022/12/09 05:35:19;;;;;;;10.70;6.00;;;1.20;99.90;;;;;;5118962;28;20043;-69
2022/12/09 05:37:44;;;;;;;10.63;6.38;;;1.20;99.90;;;;;;5117872;28;20044;-69
2022/12/09 05:40:10;;;;;;;9.32;5.68;;;1.10;99.90;;;;;;5119690;28;20036;-69
2022/12/09 05:42:36;;;;;;;10.00;5.90;;;1.00;99.90;;;;;;5115673;28;20077;-69
2022/12/09 05:45:02;;;;;;;12.10;6.07;;;1.00;99.90;;;;;;5118167;28;20070;-69
2022/12/09 05:47:28;;;;;;;11.63;7.47;;;0.90;99.90;;;;;;5117674;28;20073;-69
2022/12/09 05:49:54;;;;;;;13.18;7.20;;;1.00;99.90;;;;;;5048161;28;20041;-69
2022/12/09 05:52:19;;;;;;;12.15;6.75;;;1.20;99.90;;;;;;5035018;28;20045;-69
2022/12/09 05:54:45;;;;;;;12.02;7.22;;;1.10;99.90;;;;;;5032197;28;20089;-69
2022/12/09 05:57:11;;;;;;;13.48;7.57;;;1.00;99.90;;;;;;5036022;28;20042;-69
2022/12/09 05:59:36;;;;;;;13.38;7.45;;;1.10;99.90;;;;;;5032043;28;20147;-69
2022/12/09 06:02:02;;;;;;;13.63;7.30;;;1.00;99.90;;;;;;5035673;28;20038;-69
2022/12/09 06:04:28;;;;;;;13.10;7.30;;;1.10;99.90;;;;;;5032047;28;20057;-69
2022/12/09 06:06:53;;;;;;;15.10;7.53;;;1.10;99.90;;;;;;5035199;28;20492;-69
2022/12/09 06:09:19;;;;;;;12.32;7.22;;;1.10;99.90;;;;;;5033176;28;20075;-69
2022/12/09 06:11:45;;;;;;;13.48;7.32;;;1.20;99.90;;;;;;5034433;28;20049;-69
2022/12/09 06:14:11;;;;;;;12.80;7.97;;;1.20;99.90;;;;;;5028344;28;20076;-69
2022/12/09 06:16:37;;;;;;;12.48;7.32;;;1.20;99.90;;;;;;5013690;28;20050;-69
2022/12/09 06:19:03;;;;;;;11.70;6.68;;;1.20;99.90;;;;;;5015810;28;20042;-69
2022/12/09 06:21:29;;;;;;;13.07;7.65;;;1.10;99.90;;;;;;5013385;28;20041;-69
2022/12/09 06:23:55;;;;;;;12.70;7.63;;;1.10;99.90;;;;;;4997881;28;20050;-69
2022/12/09 06:26:26;;;;;;;11.13;6.72;;;1.00;99.90;;;;;;5013082;28;20071;-69
2022/12/09 06:28:53;;;;;;;12.13;7.55;;;1.00;99.90;;;;;;5014540;28;20054;-69
2022/12/09 06:31:20;;;;;;;12.52;7.50;;;0.90;99.90;;;;;;5015098;28;20050;-69
2022/12/09 06:33:47;;;;;;;13.75;7.32;;;0.90;99.90;;;;;;5013451;28;20053;-69
2022/12/09 06:36:13;;;;;;;12.10;6.68;;;1.00;99.90;;;;;;5014356;28;20050;-69
2022/12/09 06:38:38;;;;;;;12.27;6.55;;;0.90;99.90;;;;;;5011778;28;20579;-69
2022/12/09 06:41:06;;;;;;;12.38;6.80;;;0.80;99.90;;;;;;5013373;28;20093;-69
2022/12/09 06:43:31;;;;;;;12.05;7.30;;;0.70;99.90;;;;;;5013910;28;20734;-69
2022/12/09 06:45:57;;;;;;;12.38;6.72;;;0.60;99.90;;;;;;5014472;28;20046;-69
2022/12/09 06:48:23;;;;;;;13.02;7.15;;;0.60;99.90;;;;;;5082205;28;20035;-69
2022/12/09 06:50:50;;;;;;;12.82;7.50;;;0.60;99.90;;;;;;5114865;28;20047;-69
2022/12/09 06:53:16;;;;;;;12.70;7.03;;;0.60;99.90;;;;;;5118980;28;20067;-69
2022/12/09 06:55:41;;;;;;;9.77;5.63;;;0.60;99.90;;;;;;5115589;28;20050;-69
2022/12/09 06:58:07;;;;;;;11.27;6.65;;;0.50;99.90;;;;;;5118126;28;20055;-69
2022/12/09 07:00:33;;;;;;;13.10;6.97;;;0.40;99.90;;;;;;5116632;28;20096;-69
2022/12/09 07:02:58;;;;;;;11.23;6.55;;;0.40;99.90;;;;;;5117540;28;20036;-69
2022/12/09 07:05:24;;;;;;;10.68;6.30;;;0.40;99.90;;;;;;5116548;28;20434;-69
2022/12/09 07:07:51;;;;;;;12.20;6.28;;;0.50;99.90;;;;;;5116040;28;20044;-69
2022/12/09 07:10:17;;;;;;;10.60;6.57;;;0.70;99.90;;;;;;5118274;28;20055;-69
2022/12/09 07:12:43;;;;;;;10.85;6.68;;;0.50;99.90;;;;;;5114206;28;20077;-69
2022/12/09 07:15:09;;;;;;;11.65;6.60;;;0.40;99.90;;;;;;5046466;28;20056;-69
2022/12/09 07:17:35;;;;;;;13.40;6.95;;;0.40;99.90;;;;;;5011567;28;20061;-69
2022/12/09 07:20:01;;;;;;;12.15;7.15;;;0.40;99.90;;;;;;5064094;28;20040;-69
2022/12/09 07:22:26;;;;;;;12.82;7.10;;;0.40;99.90;;;;;;5081906;28;20034;-69
2022/12/09 07:24:52;;;;;;;12.40;6.78;;;0.30;99.90;;;;;;4991187;28;20046;-70
2022/12/09 07:27:18;;;;;;;14.10;7.68;;;0.20;99.90;;;;;;5015894;28;20046;-69
2022/12/09 07:29:43;;;;;;;13.98;7.20;;;0.20;99.90;;;;;;5032136;28;20052;-69
2022/12/09 07:32:10;;;;;;;11.73;6.63;;;0.20;99.90;;;;;;5034551;28;20049;-69
2022/12/09 07:34:37;;;;;;;8.77;5.68;;;0.20;99.90;;;;;;5034366;28;20042;-69
2022/12/09 07:37:03;;;;;;;12.27;7.00;;;0.20;99.90;;;;;;5117159;28;20062;-69
2022/12/09 07:39:28;;;;;;;10.38;5.88;;;0.00;99.90;;;;;;5117233;28;20046;-69
2022/12/09 07:41:56;;;;;;;10.93;6.10;;;-0.10;99.90;;;;;;5116450;28;20047;-69
2022/12/09 07:44:22;;;;;;;15.70;7.80;;;-0.20;99.90;;;;;;5118077;28;20046;-69
2022/12/09 07:46:48;;;;;;;14.57;7.38;;;-0.10;99.90;;;;;;5115226;28;20054;-69
2022/12/09 07:49:14;;;;;;;12.77;7.50;;;0.00;99.90;;;;;;5117789;28;20051;-69
2022/12/09 07:51:41;;;;;;;16.25;8.27;;;-0.10;99.90;;;;;;5117881;28;20058;-69
2022/12/09 07:54:11;;;;;;;17.02;9.00;;;-0.20;99.90;;;;;;5013500;28;20041;-69
2022/12/09 07:56:36;;;;;;;14.95;8.80;;;-0.10;99.90;;;;;;5011726;28;20050;-69
2022/12/09 07:59:06;;;;;;;15.25;7.93;;;-0.10;99.90;;;;;;5001384;28;20072;-69
2022/12/09 08:01:31;;;;;;;15.65;8.35;;;0.10;99.90;;;;;;5003213;28;20054;-69
2022/12/09 08:03:57;;;;;;;15.07;8.90;;;-0.30;99.90;;;;;;4998736;28;20038;-69
2022/12/09 08:06:25;;;;;;;15.27;9.57;;;-0.40;99.90;;;;;;4999599;28;20043;-69
2022/12/09 08:08:51;;;;;;;18.75;10.00;;;-0.40;99.90;;;;;;4994934;28;20050;-69
2022/12/09 08:11:23;;;;;;;19.27;11.10;;;-0.30;99.90;;;;;;5112163;28;20031;-69
2022/12/09 08:13:49;;;;;;;15.45;9.23;;;-0.10;99.90;;;;;;5118871;28;20114;-69
2022/12/09 08:16:17;;;;;;;18.25;10.40;;;-0.10;99.90;;;;;;5119695;28;20067;-69
2022/12/09 08:18:43;;;;;;;19.73;9.93;;;-0.10;99.90;;;;;;5027621;28;20104;-69
2022/12/09 08:21:12;;;;;;;18.83;10.52;;;0.00;99.90;;;;;;5008590;28;20061;-69
2022/12/09 08:23:38;;;;;;;24.48;11.50;;;0.00;99.90;;;;;;5014754;28;20049;-69
2022/12/09 08:26:05;;;;;;;26.55;12.93;;;0.00;99.90;;;;;;5015550;28;20054;-69
2022/12/09 08:28:31;;;;;;;42.30;14.75;;;0.00;99.90;;;;;;5034205;28;20053;-69
2022/12/09 08:30:57;;;;;;;36.50;13.68;;;0.10;99.90;;;;;;5028124;28;20049;-68
2022/12/09 08:33:23;;;;;;;38.65;16.25;;;0.20;99.90;;;;;;5012962;28;20053;-69
2022/12/09 08:35:49;;;;;;;52.15;15.35;;;0.20;99.90;;;;;;5015132;28;20604;-69
2022/12/09 08:38:15;;;;;;;55.42;15.65;;;0.20;99.90;;;;;;5055863;28;20031;-68
2022/12/09 08:40:40;;;;;;;58.42;16.48;;;0.20;99.90;;;;;;5040175;28;20042;-68
2022/12/09 08:43:07;;;;;;;57.28;16.98;;;0.20;99.90;;;;;;5035081;28;20042;-67
2022/12/09 08:45:38;;;;;;;65.22;18.02;;;0.30;99.90;;;;;;5060107;28;20063;-68
2022/12/09 08:48:04;;;;;;;73.80;16.83;;;0.30;99.90;;;;;;5119086;28;20043;-68
2022/12/09 08:50:30;;;;;;;61.17;18.63;;;0.30;99.90;;;;;;5118154;28;20043;-68
2022/12/09 08:52:56;;;;;;;73.70;18.30;;;0.40;99.90;;;;;;5120396;28;20055;-67
2022/12/09 08:55:22;;;;;;;53.63;17.52;;;0.40;99.90;;;;;;5030453;28;20065;-67
2022/12/09 08:57:47;;;;;;;48.72;17.85;;;0.50;99.90;;;;;;5016653;28;20061;-67
2022/12/09 09:00:14;;;;;;;72.88;19.15;;;0.60;99.90;;;;;;5014594;28;20077;-67
2022/12/09 09:02:39;;;;;;;56.72;17.02;;;0.60;99.90;;;;;;5013656;28;20080;-67
2022/12/09 09:05:05;;;;;;;55.42;19.70;;;0.70;99.90;;;;;;5014858;28;20255;-67
2022/12/09 09:07:31;;;;;;;62.95;19.65;;;0.70;99.90;;;;;;5015079;28;20102;-67
2022/12/09 09:09:59;;;;;;;78.43;19.58;;;0.80;99.90;;;;;;5055093;28;20418;-67
2022/12/09 09:12:27;;;;;;;66.68;18.60;;;0.80;99.90;;;;;;5087648;28;20076;-67
2022/12/09 09:14:53;;;;;;;56.88;18.98;;;0.80;99.90;;;;;;5017824;28;20039;-68
2022/12/09 09:17:20;;;;;;;79.68;20.45;;;0.80;99.90;;;;;;5070736;28;20052;-67
2022/12/09 09:19:46;;;;;;;71.38;21.60;;;0.80;99.90;;;;;;5081667;28;20038;-68
2022/12/09 09:22:11;;;;;;;68.72;19.17;;;0.80;99.90;;;;;;5093427;28;20066;-67
2022/12/09 09:24:37;;;;;;;54.88;18.85;;;0.80;99.90;;;;;;5084289;28;20122;-68
2022/12/09 09:27:03;;;;;;;46.72;18.85;;;0.80;99.90;;;;;;5058447;28;20052;-67
2022/12/09 09:29:29;;;;;;;34.20;15.85;;;0.80;99.90;;;;;;5016157;28;20065;-67
2022/12/09 09:31:55;;;;;;;39.33;15.55;;;0.90;99.90;;;;;;5025294;28;20046;-67
2022/12/09 09:34:21;;;;;;;37.70;16.50;;;0.90;99.90;;;;;;5013987;28;20046;-67
2022/12/09 09:36:48;;;;;;;40.00;16.63;;;1.00;99.90;;;;;;5014616;28;20052;-68
2022/12/09 09:39:14;;;;;;;33.97;15.82;;;0.90;99.90;;;;;;5023314;28;20045;-66
2022/12/09 09:41:50;;;;;;;33.80;15.65;;;1.00;99.90;;;;;;5041468;28;20051;-67
2022/12/09 09:44:16;;;;;;;32.95;16.85;;;1.00;99.90;;;;;;5079654;28;20049;-67
2022/12/09 09:46:45;;;;;;;33.10;16.02;;;1.00;99.90;;;;;;5033639;28;20575;-68
2022/12/09 09:49:37;;;;;;;35.20;17.77;;;1.00;99.90;;;;;;5034129;28;20045;-68
2022/12/09 09:52:08;;;;;;;59.03;17.85;;;1.10;99.90;;;;;;5074288;28;20134;-68
2022/12/09 09:54:34;;;;;;;55.80;16.25;;;1.10;99.90;;;;;;5115484;28;20055;-67
2022/12/09 09:57:10;;;;;;;45.75;16.17;;;1.10;99.90;;;;;;5054689;28;20045;-67
2022/12/09 09:59:48;;;;;;;34.85;15.48;;;1.10;99.90;;;;;;5106310;28;20047;-67
2022/12/09 10:02:50;;;;;;;37.72;15.85;;;1.10;99.90;;;;;;5021914;28;20129;-67
2022/12/09 10:05:27;;;;;;;46.95;16.65;;;1.10;99.90;;;;;;5026191;28;20120;-67
2022/12/09 10:08:02;;;;;;;34.38;15.13;;;1.00;99.90;;;;;;5032846;28;20547;-68
2022/12/09 10:10:53;;;;;;;36.05;16.23;;;0.90;99.90;;;;;;5022748;28;20587;-68
2022/12/09 10:13:44;;;;;;;33.17;14.63;;;0.90;99.90;;;;;;5052965;28;20048;-67
2022/12/09 10:16:43;;;;;;;30.58;14.70;;;0.90;99.90;;;;;;4994054;28;20531;-67
2022/12/09 10:19:33;;;;;;;47.83;15.52;;;0.90;99.90;;;;;;4997596;28;20528;-67
2022/12/09 10:22:12;;;;;;;33.20;14.80;;;0.90;99.90;;;;;;4993299;28;20082;-67
2022/12/09 10:24:46;;;;;;;38.17;16.52;;;0.90;99.90;;;;;;4993990;28;20066;-68
2022/12/09 10:27:39;;;;;;;40.63;14.85;;;0.50;99.90;;;;;;4996165;28;20134;-67
2022/12/09 10:30:11;;;;;;;44.42;16.42;;;0.90;99.90;;;;;;5002738;28;20120;-68
2022/12/09 10:32:38;;;;;;;52.92;16.77;;;0.80;99.90;;;;;;5034383;28;20576;-69
2022/12/09 10:35:18;;;;;;;45.10;16.98;;;0.80;99.90;;;;;;5034333;28;20056;-68
2022/12/09 10:37:45;;;;;;;53.97;16.13;;;0.80;99.90;;;;;;5033297;28;20049;-67
2022/12/09 10:40:10;;;;;;;37.75;16.15;;;0.90;99.90;;;;;;5033715;28;20084;-67
2022/12/09 10:45:47;;;;;;;32.15;15.02;;;0.80;99.90;;;;;;5034059;28;20045;-68
2022/12/09 10:48:43;;;;;;;34.45;16.80;;;0.80;99.90;;;;;;5033078;28;20053;-67
2022/12/09 10:51:16;;;;;;;32.75;16.67;;;0.80;99.90;;;;;;5045780;28;20053;-68
2022/12/09 10:53:53;;;;;;;37.40;16.08;;;0.80;99.90;;;;;;5034831;28;20041;-68
2022/12/09 10:56:23;;;;;;;41.13;16.90;;;0.80;99.90;;;;;;5032980;28;20053;-67
2022/12/09 10:59:06;;;;;;;37.92;17.88;;;0.90;99.90;;;;;;5033540;28;20045;-67
2022/12/09 11:01:48;;;;;;;39.38;16.92;;;0.80;99.90;;;;;;5034887;28;20044;-67
2022/12/09 11:04:25;;;;;;;35.40;16.95;;;0.90;99.90;;;;;;5055021;28;20039;-66
2022/12/09 11:06:56;;;;;;;42.22;18.20;;;0.90;99.90;;;;;;5117800;28;20052;-67
2022/12/09 11:09:28;;;;;;;36.70;16.70;;;0.90;99.90;;;;;;5117113;28;20075;-67
2022/12/09 11:11:54;;;;;;;36.42;16.90;;;1.00;99.90;;;;;;5029949;28;20058;-67
2022/12/09 11:14:21;;;;;;;38.22;16.90;;;1.10;99.90;;;;;;4994194;28;20128;-67
2022/12/09 11:16:56;;;;;;;37.17;16.73;;;1.20;99.90;;;;;;4993089;28;20060;-67
2022/12/09 11:19:36;;;;;;;33.53;16.73;;;1.20;99.90;;;;;;4995408;28;20069;-67
2022/12/09 11:22:23;;;;;;;33.05;16.65;;;1.20;99.90;;;;;;5073617;28;20066;-67
2022/12/09 11:24:52;;;;;;;34.20;17.55;;;1.30;99.90;;;;;;5115365;28;20040;-67
2022/12/09 11:27:26;;;;;;;33.97;16.77;;;1.30;99.90;;;;;;5119710;28;20059;-67
2022/12/09 11:30:25;;;;;;;34.60;17.63;;;1.40;99.90;;;;;;5118313;28;20067;-67
2022/12/09 11:32:53;;;;;;;31.10;15.38;;;1.40;99.90;;;;;;5121510;28;20062;-67
2022/12/09 11:35:23;;;;;;;32.47;16.35;;;1.50;99.90;;;;;;5121812;28;20044;-67
2022/12/09 11:37:50;;;;;;;32.15;15.93;;;1.60;99.90;;;;;;5119946;28;20035;-67
2022/12/09 11:40:18;;;;;;;29.02;15.35;;;1.70;99.90;;;;;;5122077;28;20571;-68
2022/12/09 11:42:50;;;;;;;28.60;16.02;;;1.70;99.90;;;;;;5118376;28;20047;-67
2022/12/09 11:45:24;;;;;;;27.88;15.02;;;1.80;99.90;;;;;;5121597;27;20079;-67
2022/12/09 11:47:51;;;;;;;28.83;16.05;;;1.80;99.90;;;;;;5121006;28;20483;-67
2022/12/09 11:50:36;;;;;;;27.85;14.93;;;1.80;99.90;;;;;;5120378;28;20043;-68
2022/12/09 11:53:11;;;;;;;27.13;14.43;;;1.90;99.90;;;;;;5120551;28;20104;-67
2022/12/09 11:55:52;;;;;;;27.20;13.73;;;1.90;99.90;;;;;;5119239;28;20048;-68
2022/12/09 11:58:26;;;;;;;28.42;14.90;;;2.20;99.90;;;;;;5120105;28;20610;-68
2022/12/09 12:00:59;;;;;;;32.00;16.30;;;2.00;99.90;;;;;;5119465;28;20071;-68
2022/12/09 12:03:33;;;;;;;31.02;14.38;;;2.00;99.90;;;;;;5119700;28;20100;-68
2022/12/09 12:06:02;;;;;;;27.38;15.07;;;2.00;99.90;;;;;;5017871;28;20050;-68
2022/12/09 12:08:50;;;;;;;29.60;14.85;;;2.00;99.90;;;;;;5014230;28;20056;-68
2022/12/09 12:11:25;;;;;;;28.23;14.50;;;2.10;99.90;;;;;;5075417;28;20100;-67
2022/12/09 12:14:08;;;;;;;27.42;14.23;;;2.00;99.90;;;;;;5043417;28;20104;-67
2022/12/09 12:16:54;;;;;;;27.17;14.82;;;2.10;99.90;;;;;;5118107;28;20522;-67
2022/12/09 12:19:38;;;;;;;26.63;15.32;;;2.10;99.90;;;;;;5036235;28;20053;-67
2022/12/09 12:22:10;;;;;;;27.65;14.65;;;2.10;99.90;;;;;;5034590;28;20061;-67
2022/12/09 12:25:05;;;;;;;28.75;14.43;;;2.10;99.90;;;;;;5018106;28;20072;-68
2022/12/09 12:28:15;;;;;;;24.75;13.82;;;2.10;99.90;;;;;;5120672;28;20070;-67
2022/12/09 12:30:59;;;;;;;27.52;15.18;;;2.20;99.90;;;;;;5081214;28;20055;-67
2022/12/09 12:33:25;;;;;;;26.55;13.05;;;2.10;99.90;;;;;;5117472;28;20040;-68
2022/12/09 12:36:15;;;;;;;25.67;13.80;;;2.10;99.90;;;;;;5101844;28;20050;-68
2022/12/09 12:38:59;;;;;;;20.88;12.55;;;2.20;99.90;;;;;;5059150;28;20050;-68
2022/12/09 12:41:45;;;;;;;23.42;13.43;;;2.20;99.90;;;;;;5030888;28;20045;-68
2022/12/09 12:47:34;;;;;;;27.00;13.55;;;2.20;99.90;;;;;;5118510;28;20035;-67
2022/12/09 12:50:19;;;;;;;22.70;12.95;;;2.30;99.90;;;;;;5058253;28;20570;-68
2022/12/09 12:53:06;;;;;;;26.80;13.47;;;2.30;99.90;;;;;;5040870;28;20058;-67
2022/12/09 12:55:51;;;;;;;23.45;12.63;;;2.40;99.90;;;;;;5032960;28;20053;-68
2022/12/09 12:58:16;;;;;;;23.90;13.00;;;2.40;99.90;;;;;;5084975;28;20044;-68
2022/12/09 13:01:03;;;;;;;16.13;9.07;;;2.30;99.90;;;;;;5101079;28;20514;-68
2022/12/09 13:03:50;;;;;;;17.50;9.23;;;2.30;99.90;;;;;;5062945;28;20457;-68
2022/12/09 13:06:20;;;;;;;19.67;11.18;;;2.30;99.90;;;;;;5062633;28;20049;-68
2022/12/09 13:08:54;;;;;;;19.67;10.48;;;2.40;99.90;;;;;;5032795;28;20053;-67
2022/12/09 13:11:46;;;;;;;21.63;11.43;;;2.30;99.90;;;;;;5015258;28;20050;-67
2022/12/09 13:14:20;;;;;;;20.73;11.15;;;2.30;99.90;;;;;;5008485;28;20053;-68